Time;durP1;ratioP1;P1;durP2;ratioP2;P2;SDS_P1;SDS_P2;PMS_P1;PMS_P2;Temp;Humidity;BMP_temperature;BMP_pressure;BME280_temperature;BME280_humidity;BME280_pressure;Samples;Min_cycle;Max_cycle;Signal;HPM_P1;HPM_P2
2022/10/17 00:00:52;;;;;;;3.08;2.20;;;;;;;;;;5088740;28;20058;-47
2022/10/17 00:03:21;;;;;;;3.10;2.08;;;;;;;;;;5084397;28;20044;-46
2022/10/17 00:05:56;;;;;;;2.85;1.95;;;;;;;;;;5091421;28;20130;-47
2022/10/17 00:08:25;;;;;;;3.80;1.90;;;;;;;;;;5089861;28;20517;-48
2022/10/17 00:11:02;;;;;;;3.63;2.53;;;;;;;;;;5095118;28;20449;-47
2022/10/17 00:13:29;;;;;;;3.35;2.15;;;;;;;;;;5090181;28;20040;-47
2022/10/17 00:15:57;;;;;;;3.10;2.17;;;;;;;;;;5071185;28;20177;-48
2022/10/17 00:18:25;;;;;;;3.53;2.05;;;;;;;;;;5075601;28;20132;-49
2022/10/17 00:21:01;;;;;;;2.92;1.50;;;;;;;;;;5085912;28;20453;-46
2022/10/17 00:23:31;;;;;;;3.47;2.10;;;;;;;;;;5072257;28;20048;-47
2022/10/17 00:26:00;;;;;;;3.55;2.15;;;;;;;;;;5094412;28;20059;-45
2022/10/17 00:28:30;;;;;;;3.88;2.10;;;;;;;;;;5095235;28;20514;-47
2022/10/17 00:30:57;;;;;;;4.05;2.20;;;;;;;;;;5062382;28;20454;-45
2022/10/17 00:33:25;;;;;;;2.78;1.80;;;;;;;;;;5062661;28;20040;-49
2022/10/17 00:35:54;;;;;;;4.30;1.75;;;;;;;;;;5058546;28;20053;-46
2022/10/17 00:38:27;;;;;;;4.07;1.75;;;;;;;;;;5054748;28;20118;-50
2022/10/17 00:40:55;;;;;;;4.50;2.45;;;;;;;;;;5068585;28;20055;-46
2022/10/17 00:43:24;;;;;;;3.50;2.33;;;;;;;;;;5094686;28;20052;-49
2022/10/17 00:45:51;;;;;;;4.97;2.53;;;;;;;;;;5080089;28;20136;-45
2022/10/17 00:48:21;;;;;;;3.65;2.28;;;;;;;;;;5090909;28;20075;-46
2022/10/17 00:50:49;;;;;;;4.13;2.25;;;;;;;;;;5087880;28;20080;-46
2022/10/17 00:53:18;;;;;;;4.40;2.10;;;;;;;;;;5090996;28;20044;-47
2022/10/17 00:55:49;;;;;;;2.85;1.90;;;;;;;;;;5094026;28;20044;-48
2022/10/17 00:58:18;;;;;;;4.40;2.00;;;;;;;;;;5074773;28;20052;-49
2022/10/17 01:00:47;;;;;;;3.38;1.85;;;;;;;;;;5074470;28;20079;-48
2022/10/17 01:03:16;;;;;;;3.75;1.85;;;;;;;;;;5073425;28;20040;-48
2022/10/17 01:05:45;;;;;;;5.22;1.95;;;;;;;;;;5074680;28;20113;-46
2022/10/17 01:08:15;;;;;;;3.00;1.92;;;;;;;;;;5074387;28;20048;-47
2022/10/17 01:10:48;;;;;;;4.20;2.70;;;;;;;;;;5074276;28;20139;-46
2022/10/17 01:13:22;;;;;;;5.50;2.30;;;;;;;;;;5075119;28;20481;-48
2022/10/17 01:15:54;;;;;;;2.88;2.17;;;;;;;;;;5084754;28;20063;-46
2022/10/17 01:18:28;;;;;;;4.72;2.30;;;;;;;;;;5089455;28;20048;-46
2022/10/17 01:21:16;;;;;;;5.03;2.55;;;;;;;;;;5074624;28;20071;-47
2022/10/17 01:24:09;;;;;;;3.13;1.80;;;;;;;;;;5070089;28;20371;-46
2022/10/17 01:26:44;;;;;;;4.30;2.15;;;;;;;;;;5063038;28;20051;-46
2022/10/17 01:29:30;;;;;;;3.88;1.80;;;;;;;;;;5092864;28;20047;-47
2022/10/17 01:32:03;;;;;;;2.42;1.60;;;;;;;;;;5076179;28;20063;-47
2022/10/17 01:34:34;;;;;;;2.75;1.65;;;;;;;;;;5067127;28;20048;-47
2022/10/17 01:37:13;;;;;;;3.67;2.00;;;;;;;;;;5061304;28;20397;-46
2022/10/17 01:39:50;;;;;;;4.18;1.63;;;;;;;;;;5053760;28;20045;-46
2022/10/17 01:42:19;;;;;;;3.08;1.92;;;;;;;;;;5053526;28;20049;-47
2022/10/17 01:44:52;;;;;;;3.60;1.60;;;;;;;;;;5058520;28;20052;-45
2022/10/17 01:47:24;;;;;;;4.68;2.10;;;;;;;;;;5060876;28;20089;-46
2022/10/17 01:49:56;;;;;;;2.03;1.48;;;;;;;;;;5063238;28;20071;-48
2022/10/17 01:52:26;;;;;;;2.30;1.50;;;;;;;;;;5065613;28;20122;-46
2022/10/17 01:54:55;;;;;;;2.67;1.85;;;;;;;;;;5073157;28;20483;-47
2022/10/17 01:57:27;;;;;;;5.30;1.90;;;;;;;;;;5078060;28;20048;-45
2022/10/17 01:59:55;;;;;;;4.32;1.88;;;;;;;;;;5076758;28;20469;-47
2022/10/17 02:02:26;;;;;;;7.47;1.70;;;;;;;;;;5093320;28;20139;-47
2022/10/17 02:04:57;;;;;;;3.33;1.38;;;;;;;;;;5078631;28;20059;-45
2022/10/17 02:07:24;;;;;;;2.58;1.40;;;;;;;;;;5083348;28;20053;-46
2022/10/17 02:09:52;;;;;;;2.83;1.60;;;;;;;;;;5072951;28;20484;-49
2022/10/17 02:12:32;;;;;;;4.50;1.75;;;;;;;;;;5072812;28;20053;-47
2022/10/17 02:15:10;;;;;;;2.75;1.30;;;;;;;;;;5071616;28;20094;-46
2022/10/17 02:17:53;;;;;;;2.60;1.45;;;;;;;;;;5069293;28;20054;-47
2022/10/17 02:20:30;;;;;;;2.90;1.52;;;;;;;;;;5073640;28;20131;-45
2022/10/17 02:23:06;;;;;;;4.03;2.40;;;;;;;;;;5072775;28;20045;-51
2022/10/17 02:25:37;;;;;;;5.60;2.40;;;;;;;;;;5069674;28;20052;-51
2022/10/17 02:28:16;;;;;;;6.85;3.08;;;;;;;;;;5078166;28;20063;-49
2022/10/17 02:30:47;;;;;;;4.97;3.10;;;;;;;;;;5066326;28;20106;-49
2022/10/17 02:33:17;;;;;;;3.78;2.53;;;;;;;;;;5067687;28;20048;-50
2022/10/17 02:35:54;;;;;;;4.82;2.40;;;;;;;;;;5072737;28;20067;-49
2022/10/17 02:38:24;;;;;;;5.25;2.40;;;;;;;;;;5086695;28;20518;-49
2022/10/17 02:40:54;;;;;;;3.58;1.90;;;;;;;;;;5071785;28;20048;-48
2022/10/17 02:43:24;;;;;;;4.43;2.40;;;;;;;;;;5072168;28;20040;-50
2022/10/17 02:45:54;;;;;;;4.32;2.05;;;;;;;;;;5068241;28;20053;-49
2022/10/17 02:48:27;;;;;;;4.88;2.33;;;;;;;;;;5073602;28;20049;-50
2022/10/17 02:51:01;;;;;;;4.53;2.00;;;;;;;;;;5078353;28;20049;-49
2022/10/17 02:53:30;;;;;;;3.50;1.60;;;;;;;;;;5072996;28;20084;-48
2022/10/17 02:56:01;;;;;;;3.78;1.80;;;;;;;;;;5072468;28;20500;-48
2022/10/17 02:58:30;;;;;;;5.47;1.75;;;;;;;;;;5071916;28;20521;-48
2022/10/17 03:01:00;;;;;;;8.63;4.45;;;;;;;;;;5072708;28;20060;-49
2022/10/17 03:03:30;;;;;;;5.13;2.72;;;;;;;;;;5073226;28;20041;-48
2022/10/17 03:06:00;;;;;;;3.92;2.15;;;;;;;;;;5086377;28;20457;-49
2022/10/17 03:08:29;;;;;;;3.97;1.70;;;;;;;;;;5063122;28;20446;-48
2022/10/17 03:10:59;;;;;;;3.80;2.05;;;;;;;;;;5084727;28;20065;-49
2022/10/17 03:13:26;;;;;;;5.80;3.00;;;;;;;;;;5072081;28;20052;-50
2022/10/17 03:15:55;;;;;;;4.97;2.10;;;;;;;;;;5071357;28;20048;-48
2022/10/17 03:18:23;;;;;;;5.43;2.70;;;;;;;;;;5071805;28;20405;-49
2022/10/17 03:21:06;;;;;;;17.77;8.73;;;;;;;;;;5074956;28;20102;-50
2022/10/17 03:23:32;;;;;;;68.63;25.90;;;;;;;;;;5092515;28;20483;-49
2022/10/17 03:26:09;;;;;;;78.30;29.80;;;;;;;;;;5073380;28;20052;-49
2022/10/17 03:28:38;;;;;;;98.80;43.40;;;;;;;;;;5062779;28;20641;-49
2022/10/17 03:31:12;;;;;;;57.33;26.30;;;;;;;;;;5071555;28;20049;-49
2022/10/17 03:33:42;;;;;;;39.95;16.38;;;;;;;;;;5072088;28;20064;-49
2022/10/17 03:36:23;;;;;;;29.52;12.95;;;;;;;;;;5071603;28;20052;-48
2022/10/17 03:38:53;;;;;;;26.98;11.82;;;;;;;;;;5072211;28;20484;-49
2022/10/17 03:41:23;;;;;;;31.40;11.95;;;;;;;;;;5072087;28;20059;-50
2022/10/17 03:43:54;;;;;;;17.17;8.65;;;;;;;;;;5072002;28;20064;-50
2022/10/17 03:46:25;;;;;;;22.10;9.55;;;;;;;;;;5079227;28;20059;-51
2022/10/17 03:48:54;;;;;;;20.20;7.75;;;;;;;;;;5060311;28;20061;-51
2022/10/17 03:51:26;;;;;;;39.55;12.30;;;;;;;;;;5056421;28;20477;-48
2022/10/17 03:53:54;;;;;;;45.45;16.08;;;;;;;;;;5068705;28;20052;-48
2022/10/17 03:56:24;;;;;;;31.52;11.10;;;;;;;;;;5089037;28;20358;-51
2022/10/17 03:58:51;;;;;;;17.83;8.40;;;;;;;;;;5073291;28;20081;-48
2022/10/17 04:01:22;;;;;;;13.15;7.53;;;;;;;;;;5088250;28;20055;-49
2022/10/17 04:03:49;;;;;;;13.15;5.90;;;;;;;;;;5076138;28;20575;-49
2022/10/17 04:06:17;;;;;;;12.32;6.30;;;;;;;;;;5086709;28;20083;-53
2022/10/17 04:08:54;;;;;;;12.60;6.15;;;;;;;;;;5078820;28;20052;-49
2022/10/17 04:11:24;;;;;;;9.95;4.85;;;;;;;;;;5075209;28;20117;-49
2022/10/17 04:13:56;;;;;;;11.52;4.90;;;;;;;;;;5074908;28;20484;-50
2022/10/17 04:16:22;;;;;;;7.63;3.78;;;;;;;;;;5074870;28;20048;-51
2022/10/17 04:18:56;;;;;;;7.80;4.30;;;;;;;;;;5074867;28;20495;-48
2022/10/17 04:21:23;;;;;;;4.45;3.03;;;;;;;;;;5074721;28;20057;-48
2022/10/17 04:23:56;;;;;;;4.25;3.03;;;;;;;;;;5074953;28;20048;-48
2022/10/17 04:26:23;;;;;;;7.90;3.05;;;;;;;;;;5075151;28;20040;-50
2022/10/17 04:28:53;;;;;;;5.22;2.58;;;;;;;;;;5075103;28;20059;-48
2022/10/17 04:31:19;;;;;;;6.38;2.50;;;;;;;;;;5058762;28;20501;-51
2022/10/17 04:33:55;;;;;;;10.50;4.00;;;;;;;;;;5064941;28;20049;-52
2022/10/17 04:36:25;;;;;;;13.95;4.75;;;;;;;;;;5070091;28;20405;-48
2022/10/17 04:38:55;;;;;;;8.68;3.72;;;;;;;;;;5065871;28;20048;-48
2022/10/17 04:41:31;;;;;;;9.32;3.78;;;;;;;;;;5074776;28;20045;-49
2022/10/17 04:44:01;;;;;;;8.13;3.63;;;;;;;;;;5074370;28;20137;-50
2022/10/17 04:46:31;;;;;;;7.85;3.35;;;;;;;;;;5070805;28;20044;-53
2022/10/17 04:48:58;;;;;;;8.05;3.72;;;;;;;;;;5060444;28;20052;-48
2022/10/17 04:51:25;;;;;;;8.27;3.03;;;;;;;;;;5063092;28;20067;-52
2022/10/17 04:53:55;;;;;;;9.93;3.95;;;;;;;;;;5075584;28;20055;-50
2022/10/17 04:56:28;;;;;;;9.32;3.67;;;;;;;;;;5088251;28;20048;-50
2022/10/17 04:58:58;;;;;;;6.05;3.30;;;;;;;;;;5074910;28;20052;-51
2022/10/17 05:01:27;;;;;;;8.90;3.15;;;;;;;;;;5087885;28;20048;-48
2022/10/17 05:03:54;;;;;;;10.85;3.30;;;;;;;;;;5071972;28;20155;-49
2022/10/17 05:06:27;;;;;;;7.57;2.97;;;;;;;;;;5073556;28;20052;-49
2022/10/17 05:08:57;;;;;;;7.40;3.33;;;;;;;;;;5070915;28;20048;-50
2022/10/17 05:11:31;;;;;;;6.75;3.33;;;;;;;;;;5072517;28;20048;-51
2022/10/17 05:14:01;;;;;;;11.43;4.88;;;;;;;;;;5073381;28;20449;-51
2022/10/17 05:16:29;;;;;;;38.90;13.13;;;;;;;;;;5073953;28;20045;-49
2022/10/17 05:18:58;;;;;;;49.70;19.58;;;;;;;;;;5084070;28;20526;-51
2022/10/17 05:21:26;;;;;;;29.20;13.90;;;;;;;;;;5072549;28;20067;-51
2022/10/17 05:23:54;;;;;;;23.23;8.57;;;;;;;;;;5072288;28;20060;-48
2022/10/17 05:26:30;;;;;;;13.15;5.95;;;;;;;;;;5075051;28;20687;-51
2022/10/17 05:29:01;;;;;;;9.10;4.47;;;;;;;;;;5073819;28;20052;-51
2022/10/17 05:31:37;;;;;;;13.43;5.80;;;;;;;;;;5058842;28;20067;-48
2022/10/17 05:34:05;;;;;;;11.85;5.53;;;;;;;;;;5073816;28;20048;-50
2022/10/17 05:36:33;;;;;;;11.95;5.10;;;;;;;;;;5073000;28;20571;-48
2022/10/17 05:39:02;;;;;;;9.60;4.10;;;;;;;;;;5073631;28;20137;-51
2022/10/17 05:41:32;;;;;;;7.28;3.72;;;;;;;;;;5067483;28;20044;-48
2022/10/17 05:43:59;;;;;;;5.85;2.67;;;;;;;;;;5064670;28;20052;-49
2022/10/17 05:46:42;;;;;;;7.95;3.83;;;;;;;;;;5067061;28;20040;-48
2022/10/17 05:49:12;;;;;;;7.65;3.35;;;;;;;;;;5080493;28;20132;-49
2022/10/17 05:51:39;;;;;;;8.82;3.97;;;;;;;;;;5071030;28;20123;-49
2022/10/17 05:54:08;;;;;;;8.68;4.28;;;;;;;;;;5074172;28;20052;-49
2022/10/17 05:56:36;;;;;;;11.02;4.40;;;;;;;;;;5069188;28;20123;-47
2022/10/17 05:59:07;;;;;;;5.95;3.15;;;;;;;;;;5061396;28;20102;-50
2022/10/17 06:01:41;;;;;;;6.60;3.50;;;;;;;;;;5073299;28;20084;-50
2022/10/17 06:04:11;;;;;;;7.80;3.72;;;;;;;;;;5064690;28;20079;-48
2022/10/17 06:06:41;;;;;;;7.57;3.78;;;;;;;;;;5068912;28;20579;-49
2022/10/17 06:09:12;;;;;;;9.32;3.58;;;;;;;;;;5072551;28;20051;-50
2022/10/17 06:11:39;;;;;;;7.50;3.15;;;;;;;;;;5067994;28;20083;-49
2022/10/17 06:14:09;;;;;;;11.93;4.38;;;;;;;;;;5067229;28;20048;-49
2022/10/17 06:16:44;;;;;;;15.23;4.40;;;;;;;;;;5064341;28;20048;-52
2022/10/17 06:19:14;;;;;;;8.77;3.80;;;;;;;;;;5057724;28;20156;-52
2022/10/17 06:21:42;;;;;;;7.38;3.60;;;;;;;;;;5064847;28;20060;-49
2022/10/17 06:24:12;;;;;;;9.32;3.35;;;;;;;;;;5061869;28;20045;-48
2022/10/17 06:26:38;;;;;;;8.57;3.70;;;;;;;;;;5061908;28;20052;-48
2022/10/17 06:29:05;;;;;;;9.15;4.38;;;;;;;;;;5070101;28;20044;-48
2022/10/17 06:31:35;;;;;;;11.55;4.75;;;;;;;;;;5071580;28;20060;-47
2022/10/17 06:34:11;;;;;;;9.90;4.38;;;;;;;;;;5071107;28;20052;-48
2022/10/17 06:36:39;;;;;;;9.23;3.80;;;;;;;;;;5069976;28;20048;-48
2022/10/17 06:39:08;;;;;;;6.40;3.67;;;;;;;;;;5071077;28;20052;-48
2022/10/17 06:41:36;;;;;;;6.55;4.03;;;;;;;;;;5074949;28;20506;-49
2022/10/17 06:44:09;;;;;;;6.20;2.88;;;;;;;;;;5053830;28;20056;-48
2022/10/17 06:46:40;;;;;;;4.35;2.25;;;;;;;;;;5069422;28;20044;-49
2022/10/17 06:49:24;;;;;;;5.43;2.50;;;;;;;;;;5070759;28;20048;-51
2022/10/17 06:51:54;;;;;;;8.38;4.03;;;;;;;;;;5072163;28;20080;-50
2022/10/17 06:54:24;;;;;;;5.88;2.60;;;;;;;;;;5069160;28;20437;-50
2022/10/17 06:56:54;;;;;;;6.10;2.90;;;;;;;;;;5063704;28;20418;-49
2022/10/17 06:59:24;;;;;;;7.28;3.50;;;;;;;;;;5072089;28;20393;-49
2022/10/17 07:01:54;;;;;;;7.28;3.05;;;;;;;;;;5073602;28;20083;-53
2022/10/17 07:04:38;;;;;;;5.85;3.22;;;;;;;;;;5069188;28;20052;-49
2022/10/17 07:07:06;;;;;;;13.80;5.15;;;;;;;;;;5073512;28;20147;-51
2022/10/17 07:09:34;;;;;;;5.28;3.17;;;;;;;;;;5063564;28;20048;-49
2022/10/17 07:12:05;;;;;;;10.52;4.32;;;;;;;;;;5067483;28;20049;-49
2022/10/17 07:14:32;;;;;;;5.20;3.50;;;;;;;;;;5071808;28;20056;-49
2022/10/17 07:17:02;;;;;;;8.30;3.92;;;;;;;;;;5069242;28;20056;-50
2022/10/17 07:19:46;;;;;;;5.28;3.72;;;;;;;;;;5071492;28;20057;-48
2022/10/17 07:22:16;;;;;;;13.10;4.07;;;;;;;;;;5071756;28;20102;-48
2022/10/17 07:24:43;;;;;;;8.63;4.18;;;;;;;;;;5064596;28;20772;-48
2022/10/17 07:27:11;;;;;;;7.97;4.15;;;;;;;;;;5053947;28;20044;-48
2022/10/17 07:29:40;;;;;;;7.53;3.65;;;;;;;;;;5058136;28;20053;-50
2022/10/17 07:32:10;;;;;;;7.45;3.42;;;;;;;;;;5067328;28;20049;-49
2022/10/17 07:34:42;;;;;;;4.78;2.30;;;;;;;;;;5073175;28;20052;-48
2022/10/17 07:37:12;;;;;;;6.35;3.08;;;;;;;;;;5065096;28;20598;-49
2022/10/17 07:39:42;;;;;;;7.13;2.65;;;;;;;;;;5071651;28;20087;-50
2022/10/17 07:42:09;;;;;;;4.97;2.42;;;;;;;;;;5075588;28;20476;-49
2022/10/17 07:44:39;;;;;;;6.50;2.72;;;;;;;;;;5077012;28;20106;-48
2022/10/17 07:47:09;;;;;;;8.68;2.95;;;;;;;;;;5061727;28;20053;-51
2022/10/17 07:49:41;;;;;;;8.85;3.40;;;;;;;;;;5069134;28;20048;-51
2022/10/17 07:52:23;;;;;;;8.05;3.10;;;;;;;;;;5069888;28;20044;-50
2022/10/17 07:54:51;;;;;;;9.55;3.38;;;;;;;;;;5077209;28;20131;-50
2022/10/17 07:57:21;;;;;;;5.32;2.92;;;;;;;;;;5066019;28;20105;-50
2022/10/17 07:59:51;;;;;;;7.28;2.58;;;;;;;;;;5072395;28;20055;-50
2022/10/17 08:02:21;;;;;;;4.90;2.38;;;;;;;;;;5068734;28;20048;-50
2022/10/17 08:04:48;;;;;;;6.18;2.92;;;;;;;;;;5067710;28;20457;-48
2022/10/17 08:07:26;;;;;;;8.38;3.25;;;;;;;;;;5084797;28;20045;-49
2022/10/17 08:09:53;;;;;;;11.25;4.05;;;;;;;;;;5059410;28;20395;-50
2022/10/17 08:12:21;;;;;;;9.27;4.60;;;;;;;;;;5063414;28;20052;-48
2022/10/17 08:14:50;;;;;;;7.38;3.95;;;;;;;;;;5066402;28;20048;-47
2022/10/17 08:17:20;;;;;;;5.25;2.97;;;;;;;;;;5073142;28;20131;-48
2022/10/17 08:19:50;;;;;;;4.88;3.13;;;;;;;;;;5069910;28;20461;-49
2022/10/17 08:22:18;;;;;;;8.73;3.92;;;;;;;;;;5061958;28;20135;-47
2022/10/17 08:24:45;;;;;;;9.10;3.28;;;;;;;;;;5066445;28;20056;-48
2022/10/17 08:27:20;;;;;;;6.38;3.10;;;;;;;;;;5073386;28;20072;-51
2022/10/17 08:29:52;;;;;;;6.65;3.42;;;;;;;;;;5067065;28;20084;-50
2022/10/17 08:32:30;;;;;;;7.90;3.30;;;;;;;;;;5059910;28;20086;-49
2022/10/17 08:35:00;;;;;;;8.63;3.75;;;;;;;;;;5068173;28;20082;-48
2022/10/17 08:37:31;;;;;;;8.15;4.00;;;;;;;;;;5068615;28;20040;-49
2022/10/17 08:39:59;;;;;;;7.68;3.58;;;;;;;;;;5065895;28;20103;-48
2022/10/17 08:42:34;;;;;;;10.63;4.35;;;;;;;;;;5058035;28;20048;-49
2022/10/17 08:45:07;;;;;;;6.75;3.97;;;;;;;;;;5060010;28;20668;-48
2022/10/17 08:47:43;;;;;;;9.45;4.15;;;;;;;;;;5069331;28;20376;-49
2022/10/17 08:50:15;;;;;;;7.55;4.00;;;;;;;;;;5064254;28;20060;-49
2022/10/17 08:52:47;;;;;;;8.23;4.07;;;;;;;;;;5072759;28;20076;-47
2022/10/17 08:55:22;;;;;;;7.20;3.53;;;;;;;;;;5076810;28;20345;-46
2022/10/17 08:57:49;;;;;;;6.78;4.03;;;;;;;;;;5077069;28;20067;-47
2022/10/17 09:00:25;;;;;;;10.38;4.65;;;;;;;;;;5075974;28;20055;-50
2022/10/17 09:03:01;;;;;;;7.32;4.70;;;;;;;;;;5073561;28;20045;-49
2022/10/17 09:05:37;;;;;;;8.70;4.70;;;;;;;;;;5073688;28;20706;-51
2022/10/17 09:08:24;;;;;;;9.70;6.30;;;;;;;;;;5071143;28;20730;-48
2022/10/17 09:10:55;;;;;;;10.30;5.70;;;;;;;;;;5056532;28;20040;-50
2022/10/17 09:13:30;;;;;;;10.93;6.32;;;;;;;;;;5067851;28;20044;-52
2022/10/17 09:16:06;;;;;;;9.20;4.82;;;;;;;;;;5072700;28;20044;-49
2022/10/17 09:18:43;;;;;;;8.10;5.05;;;;;;;;;;5073345;28;20048;-49
2022/10/17 09:21:19;;;;;;;8.75;4.43;;;;;;;;;;5072847;28;20057;-50
2022/10/17 09:24:01;;;;;;;9.95;4.90;;;;;;;;;;5073434;28;20060;-49
2022/10/17 09:26:31;;;;;;;7.45;4.78;;;;;;;;;;5072915;28;20362;-50
2022/10/17 09:29:00;;;;;;;11.30;5.35;;;;;;;;;;5074161;28;20049;-49
2022/10/17 09:31:33;;;;;;;11.88;5.10;;;;;;;;;;5066599;28;20052;-50
2022/10/17 09:34:02;;;;;;;9.07;4.55;;;;;;;;;;5067618;28;20546;-51
2022/10/17 09:36:32;;;;;;;8.13;4.57;;;;;;;;;;5080602;28;20047;-51
2022/10/17 09:39:03;;;;;;;7.10;4.60;;;;;;;;;;5071145;28;20469;-52
2022/10/17 09:41:40;;;;;;;6.10;4.28;;;;;;;;;;5062902;28;20525;-50
2022/10/17 09:44:25;;;;;;;7.68;4.35;;;;;;;;;;5065901;28;20044;-49
2022/10/17 09:46:59;;;;;;;10.43;5.03;;;;;;;;;;5069326;28;20051;-50
2022/10/17 09:49:30;;;;;;;8.05;5.00;;;;;;;;;;5070191;28;20128;-49
2022/10/17 09:52:00;;;;;;;9.00;5.10;;;;;;;;;;5071605;28;20055;-51
2022/10/17 09:54:39;;;;;;;10.00;5.72;;;;;;;;;;5069555;28;20053;-54
2022/10/17 09:57:08;;;;;;;7.78;4.82;;;;;;;;;;5072098;28;20040;-54
2022/10/17 09:59:39;;;;;;;11.55;6.28;;;;;;;;;;5073152;28;20045;-51
2022/10/17 10:02:09;;;;;;;8.50;5.57;;;;;;;;;;5072744;28;20052;-52
2022/10/17 10:04:53;;;;;;;10.80;5.57;;;;;;;;;;5072912;28;20040;-53
2022/10/17 10:07:24;;;;;;;8.25;5.57;;;;;;;;;;5070117;28;20150;-51
2022/10/17 10:09:53;;;;;;;9.05;4.68;;;;;;;;;;5061072;28;20556;-52
2022/10/17 10:12:20;;;;;;;7.93;4.63;;;;;;;;;;5070409;28;20052;-51
2022/10/17 10:14:49;;;;;;;7.80;4.88;;;;;;;;;;5057347;28;20063;-53
2022/10/17 10:17:33;;;;;;;6.30;4.90;;;;;;;;;;5068821;28;20099;-50
2022/10/17 10:20:03;;;;;;;8.20;5.28;;;;;;;;;;5062409;28;20052;-49
2022/10/17 10:22:31;;;;;;;8.10;5.18;;;;;;;;;;5068355;28;20048;-56
2022/10/17 10:25:19;;;;;;;8.65;5.75;;;;;;;;;;5070409;28;20045;-50
2022/10/17 10:27:58;;;;;;;7.40;4.50;;;;;;;;;;5066896;28;20040;-52
2022/10/17 10:30:34;;;;;;;9.10;6.18;;;;;;;;;;5069334;28;20457;-48
2022/10/17 10:33:02;;;;;;;8.98;5.75;;;;;;;;;;5071632;28;20048;-53
2022/10/17 10:35:38;;;;;;;7.75;5.40;;;;;;;;;;5071751;28;20053;-50
2022/10/17 10:38:12;;;;;;;7.13;5.35;;;;;;;;;;5070845;28;20052;-49
2022/10/17 10:40:48;;;;;;;9.25;6.13;;;;;;;;;;5072177;28;20076;-52
2022/10/17 10:43:31;;;;;;;8.73;5.32;;;;;;;;;;5060868;28;20044;-51
2022/10/17 10:45:57;;;;;;;8.70;6.05;;;;;;;;;;5065889;28;20067;-50
2022/10/17 10:48:25;;;;;;;13.05;6.82;;;;;;;;;;5067199;28;20466;-49
2022/10/17 10:51:02;;;;;;;11.98;5.53;;;;;;;;;;5070247;28;20055;-50
2022/10/17 10:53:41;;;;;;;13.80;8.00;;;;;;;;;;5069766;28;20131;-52
2022/10/17 10:56:12;;;;;;;9.52;6.50;;;;;;;;;;5071476;28;20064;-48
2022/10/17 10:58:43;;;;;;;10.73;6.18;;;;;;;;;;5070946;28;20452;-50
2022/10/17 11:01:20;;;;;;;8.95;6.70;;;;;;;;;;5071398;28;20040;-48
2022/10/17 11:03:55;;;;;;;11.02;5.75;;;;;;;;;;5068686;28;20056;-48
2022/10/17 11:06:26;;;;;;;8.45;6.10;;;;;;;;;;5071584;28;20132;-51
2022/10/17 11:09:03;;;;;;;8.68;5.22;;;;;;;;;;5070590;28;20052;-52
2022/10/17 11:11:40;;;;;;;9.02;6.63;;;;;;;;;;5071340;28;20064;-50
2022/10/17 11:14:15;;;;;;;10.85;6.35;;;;;;;;;;5071051;28;20048;-49
2022/10/17 11:16:46;;;;;;;7.40;5.03;;;;;;;;;;5071031;28;20484;-49
2022/10/17 11:19:16;;;;;;;9.98;6.93;;;;;;;;;;5071095;28;20059;-49
2022/10/17 11:21:51;;;;;;;8.65;6.32;;;;;;;;;;5071383;28;20070;-48
2022/10/17 11:24:21;;;;;;;9.70;6.40;;;;;;;;;;5072083;28;20048;-49
2022/10/17 11:26:52;;;;;;;11.50;6.75;;;;;;;;;;5066296;28;20048;-48
2022/10/17 11:29:34;;;;;;;9.90;7.18;;;;;;;;;;5072662;28;20048;-50
2022/10/17 11:32:05;;;;;;;15.48;8.82;;;;;;;;;;5069235;28;20049;-50
2022/10/17 11:34:35;;;;;;;9.77;7.07;;;;;;;;;;5071970;28;20052;-53
2022/10/17 11:37:07;;;;;;;11.50;7.47;;;;;;;;;;5068453;28;20044;-49
2022/10/17 11:39:40;;;;;;;8.55;6.20;;;;;;;;;;5071779;28;20048;-50
2022/10/17 11:42:10;;;;;;;12.02;7.38;;;;;;;;;;5068773;28;20060;-49
2022/10/17 11:44:45;;;;;;;12.75;7.00;;;;;;;;;;5071648;28;20070;-48
2022/10/17 11:47:30;;;;;;;10.38;6.10;;;;;;;;;;5063060;28;20049;-51
2022/10/17 11:50:01;;;;;;;;;;;;;;;;;;5068110;28;20416;-51
2022/10/17 11:52:34;;;;;;;9.90;5.18;;;;;;;;;;5061956;28;20648;-52
2022/10/17 11:55:06;;;;;;;9.77;6.15;;;;;;;;;;5068965;28;20496;-48
2022/10/17 11:57:41;;;;;;;9.00;6.22;;;;;;;;;;5070978;28;20048;-48
2022/10/17 12:00:22;;;;;;;6.78;4.50;;;;;;;;;;5068056;28;20067;-49
2022/10/17 12:02:53;;;;;;;8.13;5.95;;;;;;;;;;5058662;28;20044;-47
2022/10/17 12:05:25;;;;;;;9.95;6.43;;;;;;;;;;5070505;28;20048;-48
2022/10/17 12:07:58;;;;;;;9.15;5.70;;;;;;;;;;5070519;28;20472;-48
2022/10/17 12:10:33;;;;;;;8.95;5.68;;;;;;;;;;5069773;28;20052;-48
2022/10/17 12:13:16;;;;;;;9.88;5.57;;;;;;;;;;5071140;28;20056;-49
2022/10/17 12:15:58;;;;;;;9.45;5.57;;;;;;;;;;5073435;28;20063;-48
2022/10/17 12:18:38;;;;;;;10.68;6.57;;;;;;;;;;5074529;28;20504;-47
2022/10/17 12:21:16;;;;;;;10.75;6.10;;;;;;;;;;5061332;28;20054;-48
2022/10/17 12:23:51;;;;;;;8.57;5.53;;;;;;;;;;5074590;28;20052;-47
2022/10/17 12:26:28;;;;;;;9.88;5.53;;;;;;;;;;5075069;28;20449;-47
2022/10/17 12:28:58;;;;;;;7.13;4.03;;;;;;;;;;5067017;28;20048;-49
2022/10/17 12:31:29;;;;;;;8.15;4.85;;;;;;;;;;5078738;28;20460;-48
2022/10/17 12:34:18;;;;;;;11.48;5.20;;;;;;;;;;5072381;28;21013;-49
2022/10/17 12:36:47;;;;;;;7.82;4.72;;;;;;;;;;5070651;28;20076;-49
2022/10/17 12:39:49;;;;;;;9.48;6.25;;;;;;;;;;5067449;28;20049;-50
2022/10/17 12:42:34;;;;;;;8.63;5.75;;;;;;;;;;5010805;28;20463;-49
2022/10/17 12:45:04;;;;;;;10.43;6.95;;;;;;;;;;5057448;28;20091;-48
2022/10/17 12:47:38;;;;;;;10.07;7.47;;;;;;;;;;5070778;28;20072;-47
2022/10/17 12:50:22;;;;;;;12.52;8.40;;;;;;;;;;5067390;28;20096;-49
2022/10/17 12:53:01;;;;;;;12.10;8.10;;;;;;;;;;5065328;28;20041;-48
2022/10/17 12:55:29;;;;;;;14.90;7.13;;;;;;;;;;5073429;28;20048;-49
2022/10/17 12:57:57;;;;;;;11.50;8.10;;;;;;;;;;5074135;28;20044;-47
2022/10/17 13:00:29;;;;;;;11.50;8.00;;;;;;;;;;5071246;28;20044;-47
2022/10/17 13:03:02;;;;;;;12.18;7.82;;;;;;;;;;5067695;28;20377;-49
2022/10/17 13:05:33;;;;;;;11.82;7.85;;;;;;;;;;5073484;28;20579;-49
2022/10/17 13:08:11;;;;;;;12.57;7.72;;;;;;;;;;5074242;28;20127;-48
2022/10/17 13:10:39;;;;;;;11.35;7.53;;;;;;;;;;5073444;28;20044;-48
2022/10/17 13:13:11;;;;;;;9.40;6.18;;;;;;;;;;5073699;28;20547;-48
2022/10/17 13:15:41;;;;;;;11.02;7.65;;;;;;;;;;5087599;28;20063;-49
2022/10/17 13:18:19;;;;;;;9.73;6.50;;;;;;;;;;5073786;28;20538;-49
2022/10/17 13:20:54;;;;;;;11.70;6.97;;;;;;;;;;5073009;28;20048;-48
2022/10/17 13:23:21;;;;;;;;;;;;;;;;;;5077233;28;20144;-52
2022/10/17 13:26:04;;;;;;;8.40;5.32;;;;;;;;;;5074232;28;19921;-49
2022/10/17 13:28:37;;;;;;;6.32;4.63;;;;;;;;;;5073406;28;20048;-52
2022/10/17 13:31:05;;;;;;;9.20;4.68;;;;;;;;;;5063651;28;20060;-48
2022/10/17 13:33:41;;;;;;;8.43;4.75;;;;;;;;;;5072366;28;20048;-49
2022/10/17 13:36:17;;;;;;;6.93;4.25;;;;;;;;;;5072303;28;20057;-50
2022/10/17 13:38:47;;;;;;;6.50;4.50;;;;;;;;;;5072667;28;20128;-50
2022/10/17 13:41:23;;;;;;;6.80;4.80;;;;;;;;;;5075434;28;20127;-48
2022/10/17 13:43:58;;;;;;;8.57;4.43;;;;;;;;;;5084382;28;20437;-48
2022/10/17 13:46:31;;;;;;;8.15;4.95;;;;;;;;;;5069575;28;20052;-48
2022/10/17 13:49:06;;;;;;;6.95;4.28;;;;;;;;;;5068277;28;20048;-49
2022/10/17 13:51:34;;;;;;;7.75;4.63;;;;;;;;;;5069616;28;20044;-49
2022/10/17 13:54:02;;;;;;;7.32;5.05;;;;;;;;;;5071598;28;20465;-47
2022/10/17 13:56:30;;;;;;;10.73;5.28;;;;;;;;;;5085595;28;20044;-51
2022/10/17 13:59:03;;;;;;;11.00;5.43;;;;;;;;;;5074350;28;20040;-46
2022/10/17 14:01:31;;;;;;;7.45;5.13;;;;;;;;;;5068771;28;20133;-48
2022/10/17 14:04:02;;;;;;;8.48;5.30;;;;;;;;;;5072870;28;20048;-48
2022/10/17 14:06:32;;;;;;;8.68;5.82;;;;;;;;;;5072350;28;20346;-49
2022/10/17 14:09:03;;;;;;;8.75;5.15;;;;;;;;;;5077854;28;20048;-49
2022/10/17 14:11:39;;;;;;;9.35;5.15;;;;;;;;;;5081261;28;20044;-50
2022/10/17 14:14:20;;;;;;;12.43;6.72;;;;;;;;;;5077103;28;20059;-53
2022/10/17 14:16:50;;;;;;;9.05;6.00;;;;;;;;;;5070905;28;20453;-49
2022/10/17 14:19:26;;;;;;;9.48;6.53;;;;;;;;;;5072353;28;20040;-47
2022/10/17 14:21:55;;;;;;;12.48;6.25;;;;;;;;;;5073041;28;20048;-48
2022/10/17 14:24:30;;;;;;;11.43;7.07;;;;;;;;;;5074922;28;20061;-50
2022/10/17 14:27:06;;;;;;;9.27;6.43;;;;;;;;;;5071056;28;20047;-48
2022/10/17 14:29:56;;;;;;;9.23;6.18;;;;;;;;;;5070640;28;20063;-49
2022/10/17 14:32:40;;;;;;;10.32;5.75;;;;;;;;;;5068511;28;20393;-51
2022/10/17 14:35:16;;;;;;;11.60;7.57;;;;;;;;;;5068682;28;20106;-48
2022/10/17 14:37:52;;;;;;;12.23;6.85;;;;;;;;;;5073033;28;20064;-48
2022/10/17 14:40:22;;;;;;;12.13;7.18;;;;;;;;;;5070866;28;20408;-49
2022/10/17 14:42:53;;;;;;;9.80;6.78;;;;;;;;;;5065236;28;20053;-51
2022/10/17 14:45:22;;;;;;;11.00;7.03;;;;;;;;;;5074497;28;20117;-48
2022/10/17 14:47:50;;;;;;;10.75;6.57;;;;;;;;;;5059062;28;20049;-49
2022/10/17 14:50:21;;;;;;;14.25;7.30;;;;;;;;;;5063785;28;20053;-50
2022/10/17 14:53:01;;;;;;;9.82;6.88;;;;;;;;;;5059092;28;20052;-48
2022/10/17 14:55:28;;;;;;;10.63;7.18;;;;;;;;;;5069785;28;20526;-49
2022/10/17 14:57:59;;;;;;;12.43;7.03;;;;;;;;;;5069637;28;20059;-47
2022/10/17 15:00:28;;;;;;;9.68;6.57;;;;;;;;;;5072373;28;20059;-48
2022/10/17 15:03:03;;;;;;;8.27;6.60;;;;;;;;;;5064010;28;20059;-50
2022/10/17 15:05:32;;;;;;;10.93;6.40;;;;;;;;;;5067547;28;20067;-49
2022/10/17 15:08:02;;;;;;;10.88;5.68;;;;;;;;;;5062689;28;20045;-48
2022/10/17 15:10:40;;;;;;;10.35;6.20;;;;;;;;;;5071255;28;20052;-49